sensor_id;sensor_type;location;lat;lon;timestamp;P1;durP1;ratioP1;P2;durP2;ratioP2
63218;SDS011;49320;52.512;13.448;2023-02-28T00:01:29;5.07;;;3.45;;
63218;SDS011;49320;52.512;13.448;2023-02-28T00:03:57;4.70;;;3.25;;
63218;SDS011;49320;52.512;13.448;2023-02-28T00:06:24;4.60;;;3.25;;
63218;SDS011;49320;52.512;13.448;2023-02-28T00:08:52;5.75;;;3.50;;
63218;SDS011;49320;52.512;13.448;2023-02-28T00:11:19;6.50;;;3.58;;
63218;SDS011;49320;52.512;13.448;2023-02-28T00:13:46;6.35;;;4.07;;
63218;SDS011;49320;52.512;13.448;2023-02-28T00:16:15;5.93;;;3.78;;
63218;SDS011;49320;52.512;13.448;2023-02-28T00:18:46;6.05;;;3.28;;
63218;SDS011;49320;52.512;13.448;2023-02-28T00:21:14;6.00;;;3.15;;
63218;SDS011;49320;52.512;13.448;2023-02-28T00:23:42;5.60;;;3.00;;
63218;SDS011;49320;52.512;13.448;2023-02-28T00:26:10;4.70;;;3.33;;
63218;SDS011;49320;52.512;13.448;2023-02-28T00:28:37;5.32;;;3.08;;
63218;SDS011;49320;52.512;13.448;2023-02-28T00:31:04;4.55;;;3.20;;
63218;SDS011;49320;52.512;13.448;2023-02-28T00:33:31;4.15;;;2.90;;
63218;SDS011;49320;52.512;13.448;2023-02-28T00:36:09;5.72;;;3.53;;
63218;SDS011;49320;52.512;13.448;2023-02-28T00:38:37;5.07;;;2.90;;
63218;SDS011;49320;52.512;13.448;2023-02-28T00:41:06;4.97;;;3.08;;
63218;SDS011;49320;52.512;13.448;2023-02-28T00:43:34;4.90;;;3.22;;
63218;SDS011;49320;52.512;13.448;2023-02-28T00:46:03;5.05;;;2.95;;
63218;SDS011;49320;52.512;13.448;2023-02-28T00:48:31;4.32;;;2.88;;
63218;SDS011;49320;52.512;13.448;2023-02-28T00:50:58;6.30;;;3.58;;
63218;SDS011;49320;52.512;13.448;2023-02-28T00:53:26;5.10;;;3.45;;
63218;SDS011;49320;52.512;13.448;2023-02-28T00:55:53;4.85;;;2.85;;
63218;SDS011;49320;52.512;13.448;2023-02-28T00:58:20;4.90;;;3.00;;
63218;SDS011;49320;52.512;13.448;2023-02-28T01:00:47;5.60;;;3.33;;
63218;SDS011;49320;52.512;13.448;2023-02-28T01:03:16;4.88;;;3.10;;
63218;SDS011;49320;52.512;13.448;2023-02-28T01:05:44;5.65;;;3.22;;
63218;SDS011;49320;52.512;13.448;2023-02-28T01:08:12;5.35;;;3.08;;
63218;SDS011;49320;52.512;13.448;2023-02-28T01:10:40;4.35;;;2.90;;
63218;SDS011;49320;52.512;13.448;2023-02-28T01:13:08;4.78;;;3.22;;
63218;SDS011;49320;52.512;13.448;2023-02-28T01:15:35;4.07;;;2.92;;
63218;SDS011;49320;52.512;13.448;2023-02-28T01:18:02;5.93;;;3.28;;
63218;SDS011;49320;52.512;13.448;2023-02-28T01:20:29;4.68;;;3.00;;
63218;SDS011;49320;52.512;13.448;2023-02-28T01:22:56;5.30;;;2.92;;
63218;SDS011;49320;52.512;13.448;2023-02-28T01:25:23;4.80;;;3.10;;
63218;SDS011;49320;52.512;13.448;2023-02-28T01:27:50;4.68;;;3.25;;
63218;SDS011;49320;52.512;13.448;2023-02-28T01:30:17;5.22;;;3.30;;
63218;SDS011;49320;52.512;13.448;2023-02-28T01:32:44;4.55;;;3.17;;
63218;SDS011;49320;52.512;13.448;2023-02-28T01:35:10;4.68;;;3.08;;
63218;SDS011;49320;52.512;13.448;2023-02-28T01:37:37;6.90;;;3.53;;
63218;SDS011;49320;52.512;13.448;2023-02-28T01:40:04;5.25;;;3.08;;
63218;SDS011;49320;52.512;13.448;2023-02-28T01:42:32;5.63;;;3.60;;
63218;SDS011;49320;52.512;13.448;2023-02-28T01:47:44;4.80;;;2.85;;
63218;SDS011;49320;52.512;13.448;2023-02-28T01:50:18;6.45;;;3.50;;
63218;SDS011;49320;52.512;13.448;2023-02-28T01:52:51;4.80;;;3.38;;
63218;SDS011;49320;52.512;13.448;2023-02-28T01:55:23;4.85;;;3.30;;
63218;SDS011;49320;52.512;13.448;2023-02-28T01:57:55;4.40;;;3.10;;
63218;SDS011;49320;52.512;13.448;2023-02-28T02:00:26;4.85;;;3.22;;
63218;SDS011;49320;52.512;13.448;2023-02-28T02:02:57;5.15;;;3.42;;
63218;SDS011;49320;52.512;13.448;2023-02-28T02:05:30;5.25;;;3.58;;
63218;SDS011;49320;52.512;13.448;2023-02-28T02:08:01;4.35;;;3.15;;
63218;SDS011;49320;52.512;13.448;2023-02-28T02:10:44;5.03;;;3.75;;
63218;SDS011;49320;52.512;13.448;2023-02-28T02:13:51;6.07;;;3.17;;
63218;SDS011;49320;52.512;13.448;2023-02-28T02:16:24;4.90;;;3.15;;
63218;SDS011;49320;52.512;13.448;2023-02-28T02:19:41;4.65;;;2.92;;
63218;SDS011;49320;52.512;13.448;2023-02-28T02:31:52;5.25;;;3.75;;
63218;SDS011;49320;52.512;13.448;2023-02-28T02:34:45;4.88;;;3.05;;
63218;SDS011;49320;52.512;13.448;2023-02-28T02:40:04;5.90;;;3.50;;
63218;SDS011;49320;52.512;13.448;2023-02-28T02:42:51;5.47;;;3.58;;
63218;SDS011;49320;52.512;13.448;2023-02-28T02:48:03;6.30;;;3.45;;
63218;SDS011;49320;52.512;13.448;2023-02-28T02:50:36;5.75;;;3.60;;
63218;SDS011;49320;52.512;13.448;2023-02-28T02:55:40;4.75;;;3.38;;
63218;SDS011;49320;52.512;13.448;2023-02-28T03:00:46;4.40;;;3.38;;
63218;SDS011;49320;52.512;13.448;2023-02-28T03:03:19;4.13;;;2.90;;
63218;SDS011;49320;52.512;13.448;2023-02-28T03:05:56;5.13;;;3.35;;
63218;SDS011;49320;52.512;13.448;2023-02-28T03:08:25;5.70;;;3.95;;
63218;SDS011;49320;52.512;13.448;2023-02-28T03:11:02;6.88;;;3.90;;
63218;SDS011;49320;52.512;13.448;2023-02-28T03:13:50;5.53;;;3.70;;
63218;SDS011;49320;52.512;13.448;2023-02-28T03:28:15;5.13;;;3.45;;
63218;SDS011;49320;52.512;13.448;2023-02-28T03:31:06;4.68;;;3.17;;
63218;SDS011;49320;52.512;13.448;2023-02-28T03:34:04;5.40;;;3.55;;
63218;SDS011;49320;52.512;13.448;2023-02-28T03:36:49;4.13;;;3.25;;
63218;SDS011;49320;52.512;13.448;2023-02-28T03:39:27;6.95;;;3.78;;
63218;SDS011;49320;52.512;13.448;2023-02-28T03:42:05;4.80;;;3.60;;
63218;SDS011;49320;52.512;13.448;2023-02-28T03:44:48;5.25;;;3.92;;
63218;SDS011;49320;52.512;13.448;2023-02-28T03:47:26;5.35;;;3.92;;
63218;SDS011;49320;52.512;13.448;2023-02-28T03:50:27;5.43;;;3.58;;
63218;SDS011;49320;52.512;13.448;2023-02-28T03:53:12;4.88;;;3.55;;
63218;SDS011;49320;52.512;13.448;2023-02-28T03:55:52;5.72;;;3.72;;
63218;SDS011;49320;52.512;13.448;2023-02-28T03:58:41;6.00;;;4.20;;
63218;SDS011;49320;52.512;13.448;2023-02-28T04:01:23;5.28;;;3.67;;
63218;SDS011;49320;52.512;13.448;2023-02-28T04:03:58;5.20;;;3.50;;
63218;SDS011;49320;52.512;13.448;2023-02-28T04:06:25;5.50;;;3.92;;
63218;SDS011;49320;52.512;13.448;2023-02-28T04:08:53;10.55;;;4.03;;
63218;SDS011;49320;52.512;13.448;2023-02-28T04:11:27;5.55;;;3.85;;
63218;SDS011;49320;52.512;13.448;2023-02-28T04:14:04;6.95;;;3.97;;
63218;SDS011;49320;52.512;13.448;2023-02-28T04:16:35;6.53;;;4.43;;
63218;SDS011;49320;52.512;13.448;2023-02-28T04:19:06;6.30;;;3.78;;
63218;SDS011;49320;52.512;13.448;2023-02-28T04:21:36;6.13;;;4.00;;
63218;SDS011;49320;52.512;13.448;2023-02-28T04:24:06;6.03;;;3.90;;
63218;SDS011;49320;52.512;13.448;2023-02-28T04:26:40;5.70;;;3.88;;
63218;SDS011;49320;52.512;13.448;2023-02-28T04:29:11;5.65;;;3.60;;
63218;SDS011;49320;52.512;13.448;2023-02-28T04:31:40;5.88;;;3.50;;
63218;SDS011;49320;52.512;13.448;2023-02-28T04:34:07;7.22;;;4.20;;
63218;SDS011;49320;52.512;13.448;2023-02-28T04:36:34;5.50;;;4.15;;
63218;SDS011;49320;52.512;13.448;2023-02-28T04:39:01;5.63;;;4.10;;
63218;SDS011;49320;52.512;13.448;2023-02-28T04:41:28;5.70;;;3.78;;
63218;SDS011;49320;52.512;13.448;2023-02-28T04:43:57;6.75;;;3.85;;
63218;SDS011;49320;52.512;13.448;2023-02-28T04:46:25;6.07;;;3.60;;
63218;SDS011;49320;52.512;13.448;2023-02-28T04:48:51;6.25;;;4.07;;
63218;SDS011;49320;52.512;13.448;2023-02-28T04:51:20;6.50;;;4.07;;
63218;SDS011;49320;52.512;13.448;2023-02-28T04:53:47;7.05;;;4.65;;
63218;SDS011;49320;52.512;13.448;2023-02-28T04:56:15;5.38;;;4.00;;
63218;SDS011;49320;52.512;13.448;2023-02-28T04:58:44;6.70;;;4.53;;
63218;SDS011;49320;52.512;13.448;2023-02-28T05:01:19;5.38;;;3.92;;
63218;SDS011;49320;52.512;13.448;2023-02-28T05:03:48;8.48;;;4.60;;
63218;SDS011;49320;52.512;13.448;2023-02-28T05:06:16;6.95;;;4.57;;
63218;SDS011;49320;52.512;13.448;2023-02-28T05:08:44;6.90;;;4.22;;
63218;SDS011;49320;52.512;13.448;2023-02-28T05:11:13;6.53;;;4.63;;
63218;SDS011;49320;52.512;13.448;2023-02-28T05:13:50;6.63;;;5.00;;
63218;SDS011;49320;52.512;13.448;2023-02-28T05:16:18;6.93;;;4.18;;
63218;SDS011;49320;52.512;13.448;2023-02-28T05:18:46;6.10;;;4.22;;
63218;SDS011;49320;52.512;13.448;2023-02-28T05:23:52;7.07;;;4.45;;
63218;SDS011;49320;52.512;13.448;2023-02-28T05:26:20;6.10;;;4.28;;
63218;SDS011;49320;52.512;13.448;2023-02-28T05:28:47;6.95;;;4.57;;
63218;SDS011;49320;52.512;13.448;2023-02-28T05:31:14;6.93;;;4.97;;
63218;SDS011;49320;52.512;13.448;2023-02-28T05:33:41;5.40;;;4.18;;
63218;SDS011;49320;52.512;13.448;2023-02-28T05:36:08;6.60;;;4.55;;
63218;SDS011;49320;52.512;13.448;2023-02-28T05:38:35;6.45;;;4.47;;
63218;SDS011;49320;52.512;13.448;2023-02-28T05:41:05;5.82;;;4.35;;
63218;SDS011;49320;52.512;13.448;2023-02-28T05:43:36;7.32;;;4.35;;
63218;SDS011;49320;52.512;13.448;2023-02-28T05:46:08;6.78;;;4.53;;
63218;SDS011;49320;52.512;13.448;2023-02-28T05:48:37;7.32;;;4.38;;
63218;SDS011;49320;52.512;13.448;2023-02-28T05:51:06;6.68;;;4.40;;
63218;SDS011;49320;52.512;13.448;2023-02-28T05:53:35;6.97;;;4.68;;
63218;SDS011;49320;52.512;13.448;2023-02-28T05:56:02;6.85;;;4.43;;
63218;SDS011;49320;52.512;13.448;2023-02-28T05:58:30;7.45;;;4.78;;
63218;SDS011;49320;52.512;13.448;2023-02-28T06:00:57;7.03;;;4.63;;
63218;SDS011;49320;52.512;13.448;2023-02-28T06:03:26;7.15;;;4.68;;
63218;SDS011;49320;52.512;13.448;2023-02-28T06:05:53;7.95;;;4.85;;
63218;SDS011;49320;52.512;13.448;2023-02-28T06:08:20;7.88;;;5.05;;
63218;SDS011;49320;52.512;13.448;2023-02-28T06:10:47;7.30;;;4.82;;
63218;SDS011;49320;52.512;13.448;2023-02-28T06:13:14;8.55;;;5.65;;
63218;SDS011;49320;52.512;13.448;2023-02-28T06:15:41;8.15;;;5.15;;
63218;SDS011;49320;52.512;13.448;2023-02-28T06:18:08;8.52;;;4.80;;
63218;SDS011;49320;52.512;13.448;2023-02-28T06:20:35;8.18;;;4.95;;
63218;SDS011;49320;52.512;13.448;2023-02-28T06:23:02;9.38;;;5.65;;
63218;SDS011;49320;52.512;13.448;2023-02-28T06:25:29;8.07;;;5.65;;
63218;SDS011;49320;52.512;13.448;2023-02-28T06:27:56;9.27;;;5.10;;
63218;SDS011;49320;52.512;13.448;2023-02-28T06:30:23;9.13;;;5.32;;
63218;SDS011;49320;52.512;13.448;2023-02-28T06:32:53;8.43;;;5.38;;
63218;SDS011;49320;52.512;13.448;2023-02-28T06:35:20;8.90;;;5.53;;
63218;SDS011;49320;52.512;13.448;2023-02-28T06:37:48;11.55;;;6.70;;
63218;SDS011;49320;52.512;13.448;2023-02-28T06:40:15;10.38;;;5.93;;
63218;SDS011;49320;52.512;13.448;2023-02-28T06:42:42;8.43;;;5.55;;
63218;SDS011;49320;52.512;13.448;2023-02-28T06:45:10;7.63;;;5.40;;
63218;SDS011;49320;52.512;13.448;2023-02-28T06:47:38;9.52;;;5.32;;
63218;SDS011;49320;52.512;13.448;2023-02-28T06:50:07;8.40;;;5.45;;
63218;SDS011;49320;52.512;13.448;2023-02-28T06:52:38;9.23;;;5.72;;
63218;SDS011;49320;52.512;13.448;2023-02-28T06:55:06;9.07;;;5.65;;
63218;SDS011;49320;52.512;13.448;2023-02-28T06:57:35;8.55;;;5.72;;
63218;SDS011;49320;52.512;13.448;2023-02-28T07:00:11;7.65;;;5.53;;
63218;SDS011;49320;52.512;13.448;2023-02-28T07:02:39;8.00;;;5.57;;
63218;SDS011;49320;52.512;13.448;2023-02-28T07:05:06;10.95;;;6.13;;
63218;SDS011;49320;52.512;13.448;2023-02-28T07:07:33;7.78;;;5.72;;
63218;SDS011;49320;52.512;13.448;2023-02-28T07:10:02;8.10;;;5.88;;
63218;SDS011;49320;52.512;13.448;2023-02-28T07:12:29;12.40;;;7.55;;
63218;SDS011;49320;52.512;13.448;2023-02-28T07:14:56;15.10;;;8.75;;
63218;SDS011;49320;52.512;13.448;2023-02-28T07:17:23;13.63;;;7.82;;
63218;SDS011;49320;52.512;13.448;2023-02-28T07:19:50;12.05;;;7.55;;
63218;SDS011;49320;52.512;13.448;2023-02-28T07:22:17;10.82;;;7.05;;
63218;SDS011;49320;52.512;13.448;2023-02-28T07:24:43;12.55;;;7.60;;
63218;SDS011;49320;52.512;13.448;2023-02-28T07:27:10;10.38;;;6.72;;
63218;SDS011;49320;52.512;13.448;2023-02-28T07:29:37;11.35;;;6.53;;
63218;SDS011;49320;52.512;13.448;2023-02-28T07:32:04;9.65;;;5.80;;
63218;SDS011;49320;52.512;13.448;2023-02-28T07:34:31;10.50;;;5.43;;
63218;SDS011;49320;52.512;13.448;2023-02-28T07:36:58;10.27;;;5.70;;
63218;SDS011;49320;52.512;13.448;2023-02-28T07:39:25;7.95;;;4.85;;
63218;SDS011;49320;52.512;13.448;2023-02-28T07:41:51;10.35;;;5.28;;
63218;SDS011;49320;52.512;13.448;2023-02-28T07:44:18;10.52;;;4.90;;
63218;SDS011;49320;52.512;13.448;2023-02-28T07:46:45;10.60;;;4.95;;
63218;SDS011;49320;52.512;13.448;2023-02-28T07:49:12;8.73;;;4.90;;
63218;SDS011;49320;52.512;13.448;2023-02-28T07:51:39;10.82;;;4.82;;
63218;SDS011;49320;52.512;13.448;2023-02-28T07:54:06;6.70;;;4.20;;
63218;SDS011;49320;52.512;13.448;2023-02-28T07:56:32;9.98;;;6.40;;
63218;SDS011;49320;52.512;13.448;2023-02-28T07:58:59;9.70;;;4.72;;
63218;SDS011;49320;52.512;13.448;2023-02-28T08:01:27;8.43;;;4.97;;
63218;SDS011;49320;52.512;13.448;2023-02-28T08:03:55;9.02;;;4.72;;
63218;SDS011;49320;52.512;13.448;2023-02-28T08:06:23;6.45;;;3.97;;
63218;SDS011;49320;52.512;13.448;2023-02-28T08:08:52;5.68;;;3.78;;
63218;SDS011;49320;52.512;13.448;2023-02-28T08:11:19;6.25;;;3.80;;
63218;SDS011;49320;52.512;13.448;2023-02-28T08:13:46;8.63;;;3.28;;
63218;SDS011;49320;52.512;13.448;2023-02-28T08:16:13;9.00;;;3.53;;
63218;SDS011;49320;52.512;13.448;2023-02-28T08:18:43;6.00;;;3.85;;
63218;SDS011;49320;52.512;13.448;2023-02-28T08:21:10;4.55;;;3.03;;
63218;SDS011;49320;52.512;13.448;2023-02-28T08:23:38;7.72;;;3.42;;
63218;SDS011;49320;52.512;13.448;2023-02-28T08:26:05;7.38;;;3.35;;
63218;SDS011;49320;52.512;13.448;2023-02-28T08:28:32;6.07;;;3.58;;
63218;SDS011;49320;52.512;13.448;2023-02-28T08:31:00;7.57;;;3.03;;
63218;SDS011;49320;52.512;13.448;2023-02-28T08:33:34;5.15;;;2.83;;
63218;SDS011;49320;52.512;13.448;2023-02-28T08:36:01;4.00;;;2.53;;
63218;SDS011;49320;52.512;13.448;2023-02-28T08:38:28;5.10;;;2.58;;
63218;SDS011;49320;52.512;13.448;2023-02-28T08:40:58;5.18;;;2.90;;
63218;SDS011;49320;52.512;13.448;2023-02-28T08:43:28;4.28;;;2.75;;
63218;SDS011;49320;52.512;13.448;2023-02-28T08:45:55;6.82;;;3.35;;
63218;SDS011;49320;52.512;13.448;2023-02-28T08:48:23;3.40;;;2.65;;
63218;SDS011;49320;52.512;13.448;2023-02-28T08:51:08;4.90;;;2.63;;
63218;SDS011;49320;52.512;13.448;2023-02-28T08:53:39;4.75;;;2.70;;
63218;SDS011;49320;52.512;13.448;2023-02-28T08:56:07;3.72;;;3.17;;
63218;SDS011;49320;52.512;13.448;2023-02-28T08:58:37;6.05;;;2.83;;
63218;SDS011;49320;52.512;13.448;2023-02-28T09:01:09;6.07;;;2.88;;
63218;SDS011;49320;52.512;13.448;2023-02-28T09:03:41;4.18;;;2.60;;
63218;SDS011;49320;52.512;13.448;2023-02-28T09:06:09;3.70;;;2.10;;
63218;SDS011;49320;52.512;13.448;2023-02-28T09:08:37;4.22;;;2.45;;
63218;SDS011;49320;52.512;13.448;2023-02-28T09:11:04;3.42;;;2.47;;
63218;SDS011;49320;52.512;13.448;2023-02-28T09:13:32;4.32;;;2.47;;
63218;SDS011;49320;52.512;13.448;2023-02-28T09:15:59;4.65;;;2.40;;
63218;SDS011;49320;52.512;13.448;2023-02-28T09:18:29;2.92;;;2.03;;
63218;SDS011;49320;52.512;13.448;2023-02-28T09:20:57;5.20;;;2.00;;
63218;SDS011;49320;52.512;13.448;2023-02-28T09:23:24;4.00;;;2.30;;
63218;SDS011;49320;52.512;13.448;2023-02-28T09:25:52;3.42;;;2.53;;
63218;SDS011;49320;52.512;13.448;2023-02-28T09:28:21;3.25;;;2.38;;
63218;SDS011;49320;52.512;13.448;2023-02-28T09:30:49;3.67;;;2.45;;
63218;SDS011;49320;52.512;13.448;2023-02-28T09:33:19;2.67;;;2.28;;
63218;SDS011;49320;52.512;13.448;2023-02-28T09:35:48;3.33;;;2.20;;
63218;SDS011;49320;52.512;13.448;2023-02-28T09:38:16;2.47;;;1.95;;
63218;SDS011;49320;52.512;13.448;2023-02-28T09:40:56;3.10;;;1.83;;
63218;SDS011;49320;52.512;13.448;2023-02-28T09:43:29;3.50;;;1.77;;
63218;SDS011;49320;52.512;13.448;2023-02-28T09:46:11;2.78;;;1.80;;
63218;SDS011;49320;52.512;13.448;2023-02-28T09:49:02;2.78;;;1.95;;
63218;SDS011;49320;52.512;13.448;2023-02-28T09:51:40;4.22;;;2.00;;
63218;SDS011;49320;52.512;13.448;2023-02-28T09:54:28;2.85;;;2.30;;
63218;SDS011;49320;52.512;13.448;2023-02-28T09:59:49;3.13;;;1.98;;
63218;SDS011;49320;52.512;13.448;2023-02-28T10:05:38;4.53;;;1.63;;
63218;SDS011;49320;52.512;13.448;2023-02-28T10:11:18;4.95;;;2.10;;
63218;SDS011;49320;52.512;13.448;2023-02-28T10:16:37;4.57;;;3.00;;
63218;SDS011;49320;52.512;13.448;2023-02-28T10:24:46;5.50;;;3.10;;
63218;SDS011;49320;52.512;13.448;2023-02-28T10:27:19;5.70;;;2.92;;
63218;SDS011;49320;52.512;13.448;2023-02-28T10:29:55;5.32;;;2.78;;
63218;SDS011;49320;52.512;13.448;2023-02-28T10:32:32;5.13;;;3.20;;
63218;SDS011;49320;52.512;13.448;2023-02-28T10:35:21;3.90;;;2.40;;
63218;SDS011;49320;52.512;13.448;2023-02-28T10:37:53;6.00;;;3.28;;
63218;SDS011;49320;52.512;13.448;2023-02-28T10:40:29;3.88;;;2.70;;
63218;SDS011;49320;52.512;13.448;2023-02-28T10:43:03;3.60;;;2.38;;
63218;SDS011;49320;52.512;13.448;2023-02-28T10:46:00;3.40;;;2.25;;
63218;SDS011;49320;52.512;13.448;2023-02-28T10:48:32;3.13;;;2.03;;
63218;SDS011;49320;52.512;13.448;2023-02-28T10:51:25;3.40;;;2.35;;
63218;SDS011;49320;52.512;13.448;2023-02-28T10:54:05;3.53;;;2.28;;
63218;SDS011;49320;52.512;13.448;2023-02-28T10:56:44;3.70;;;2.10;;
63218;SDS011;49320;52.512;13.448;2023-02-28T11:01:42;4.25;;;2.03;;
63218;SDS011;49320;52.512;13.448;2023-02-28T11:06:59;3.00;;;2.08;;
63218;SDS011;49320;52.512;13.448;2023-02-28T11:09:33;4.70;;;2.70;;
63218;SDS011;49320;52.512;13.448;2023-02-28T11:12:08;4.65;;;2.40;;
63218;SDS011;49320;52.512;13.448;2023-02-28T11:17:57;5.55;;;3.08;;
63218;SDS011;49320;52.512;13.448;2023-02-28T11:21:18;5.07;;;2.97;;
63218;SDS011;49320;52.512;13.448;2023-02-28T11:24:26;4.18;;;2.90;;
63218;SDS011;49320;52.512;13.448;2023-02-28T11:26:58;4.57;;;2.75;;
63218;SDS011;49320;52.512;13.448;2023-02-28T11:29:25;4.05;;;2.85;;
63218;SDS011;49320;52.512;13.448;2023-02-28T11:32:02;4.30;;;2.63;;
63218;SDS011;49320;52.512;13.448;2023-02-28T11:35:00;3.72;;;2.35;;
63218;SDS011;49320;52.512;13.448;2023-02-28T11:37:43;2.92;;;2.20;;
63218;SDS011;49320;52.512;13.448;2023-02-28T11:40:15;3.50;;;2.17;;
63218;SDS011;49320;52.512;13.448;2023-02-28T11:42:59;4.68;;;2.42;;
63218;SDS011;49320;52.512;13.448;2023-02-28T11:46:03;4.00;;;2.30;;
63218;SDS011;49320;52.512;13.448;2023-02-28T11:49:14;3.38;;;2.42;;
63218;SDS011;49320;52.512;13.448;2023-02-28T11:52:43;3.47;;;2.17;;
63218;SDS011;49320;52.512;13.448;2023-02-28T11:55:23;4.22;;;2.78;;
63218;SDS011;49320;52.512;13.448;2023-02-28T11:58:02;4.28;;;2.55;;
63218;SDS011;49320;52.512;13.448;2023-02-28T12:00:54;5.35;;;2.60;;
63218;SDS011;49320;52.512;13.448;2023-02-28T12:03:58;4.53;;;2.75;;
63218;SDS011;49320;52.512;13.448;2023-02-28T12:06:57;4.20;;;2.53;;
63218;SDS011;49320;52.512;13.448;2023-02-28T12:13:16;4.00;;;2.70;;
63218;SDS011;49320;52.512;13.448;2023-02-28T12:21:46;4.07;;;2.70;;
63218;SDS011;49320;52.512;13.448;2023-02-28T12:27:43;2.50;;;2.30;;
63218;SDS011;49320;52.512;13.448;2023-02-28T12:33:14;4.13;;;2.47;;
63218;SDS011;49320;52.512;13.448;2023-02-28T12:35:47;3.80;;;2.28;;
63218;SDS011;49320;52.512;13.448;2023-02-28T12:38:23;4.97;;;2.30;;
63218;SDS011;49320;52.512;13.448;2023-02-28T12:41:01;2.75;;;2.10;;
63218;SDS011;49320;52.512;13.448;2023-02-28T12:43:38;2.67;;;1.98;;
63218;SDS011;49320;52.512;13.448;2023-02-28T12:49:27;2.72;;;2.20;;
63218;SDS011;49320;52.512;13.448;2023-02-28T12:52:07;3.60;;;2.63;;
63218;SDS011;49320;52.512;13.448;2023-02-28T12:54:42;4.15;;;1.95;;
63218;SDS011;49320;52.512;13.448;2023-02-28T13:00:12;3.58;;;2.33;;
63218;SDS011;49320;52.512;13.448;2023-02-28T13:06:05;3.67;;;2.28;;
63218;SDS011;49320;52.512;13.448;2023-02-28T13:09:01;4.38;;;2.40;;
63218;SDS011;49320;52.512;13.448;2023-02-28T13:11:46;4.47;;;2.50;;
63218;SDS011;49320;52.512;13.448;2023-02-28T13:14:19;2.80;;;2.10;;
63218;SDS011;49320;52.512;13.448;2023-02-28T13:19:41;2.85;;;2.20;;
63218;SDS011;49320;52.512;13.448;2023-02-28T13:22:38;3.70;;;2.40;;
63218;SDS011;49320;52.512;13.448;2023-02-28T13:28:11;3.08;;;2.03;;
63218;SDS011;49320;52.512;13.448;2023-02-28T13:31:02;3.30;;;1.98;;
63218;SDS011;49320;52.512;13.448;2023-02-28T13:33:34;2.85;;;2.13;;
63218;SDS011;49320;52.512;13.448;2023-02-28T13:36:27;3.97;;;2.20;;
63218;SDS011;49320;52.512;13.448;2023-02-28T13:38:59;3.00;;;2.20;;
63218;SDS011;49320;52.512;13.448;2023-02-28T13:42:22;3.03;;;2.22;;
63218;SDS011;49320;52.512;13.448;2023-02-28T13:50:22;3.70;;;2.33;;
63218;SDS011;49320;52.512;13.448;2023-02-28T13:58:25;3.08;;;2.15;;
63218;SDS011;49320;52.512;13.448;2023-02-28T14:01:16;4.18;;;2.88;;
63218;SDS011;49320;52.512;13.448;2023-02-28T14:06:46;4.10;;;2.50;;
63218;SDS011;49320;52.512;13.448;2023-02-28T14:09:19;3.97;;;2.42;;
63218;SDS011;49320;52.512;13.448;2023-02-28T14:15:41;3.55;;;2.60;;
63218;SDS011;49320;52.512;13.448;2023-02-28T14:18:16;2.77;;;2.03;;
63218;SDS011;49320;52.512;13.448;2023-02-28T14:20:53;2.75;;;2.13;;
63218;SDS011;49320;52.512;13.448;2023-02-28T14:23:35;3.33;;;2.10;;
63218;SDS011;49320;52.512;13.448;2023-02-28T14:32:21;4.22;;;2.60;;
63218;SDS011;49320;52.512;13.448;2023-02-28T14:37:56;4.18;;;2.10;;
63218;SDS011;49320;52.512;13.448;2023-02-28T14:40:26;3.65;;;2.35;;
63218;SDS011;49320;52.512;13.448;2023-02-28T14:42:59;3.30;;;2.45;;
63218;SDS011;49320;52.512;13.448;2023-02-28T14:45:33;4.13;;;2.60;;
63218;SDS011;49320;52.512;13.448;2023-02-28T14:48:03;3.47;;;2.33;;
63218;SDS011;49320;52.512;13.448;2023-02-28T14:50:36;3.40;;;2.65;;
63218;SDS011;49320;52.512;13.448;2023-02-28T14:53:04;3.25;;;2.67;;
63218;SDS011;49320;52.512;13.448;2023-02-28T14:55:45;3.55;;;2.65;;
63218;SDS011;49320;52.512;13.448;2023-02-28T14:58:24;3.08;;;2.40;;
63218;SDS011;49320;52.512;13.448;2023-02-28T15:00:54;3.95;;;2.58;;
63218;SDS011;49320;52.512;13.448;2023-02-28T15:03:27;3.95;;;2.60;;
63218;SDS011;49320;52.512;13.448;2023-02-28T15:05:58;4.30;;;2.60;;
63218;SDS011;49320;52.512;13.448;2023-02-28T15:08:29;6.85;;;2.75;;
63218;SDS011;49320;52.512;13.448;2023-02-28T15:11:16;4.63;;;2.67;;
63218;SDS011;49320;52.512;13.448;2023-02-28T15:13:53;5.20;;;3.42;;
63218;SDS011;49320;52.512;13.448;2023-02-28T15:16:24;3.72;;;2.70;;
63218;SDS011;49320;52.512;13.448;2023-02-28T15:19:07;4.20;;;2.97;;
63218;SDS011;49320;52.512;13.448;2023-02-28T15:21:47;27.55;;;6.53;;
63218;SDS011;49320;52.512;13.448;2023-02-28T15:24:23;7.22;;;4.18;;
63218;SDS011;49320;52.512;13.448;2023-02-28T15:27:03;5.68;;;3.75;;
63218;SDS011;49320;52.512;13.448;2023-02-28T15:29:42;5.03;;;3.58;;
63218;SDS011;49320;52.512;13.448;2023-02-28T15:32:34;4.25;;;3.08;;
63218;SDS011;49320;52.512;13.448;2023-02-28T15:40:26;3.00;;;2.20;;
63218;SDS011;49320;52.512;13.448;2023-02-28T15:45:48;3.72;;;2.80;;
63218;SDS011;49320;52.512;13.448;2023-02-28T15:48:23;4.40;;;3.50;;
63218;SDS011;49320;52.512;13.448;2023-02-28T15:56:23;4.78;;;3.08;;
63218;SDS011;49320;52.512;13.448;2023-02-28T15:58:56;3.40;;;2.60;;
63218;SDS011;49320;52.512;13.448;2023-02-28T16:01:34;4.88;;;2.83;;
63218;SDS011;49320;52.512;13.448;2023-02-28T16:04:05;6.35;;;3.47;;
63218;SDS011;49320;52.512;13.448;2023-02-28T16:06:44;5.05;;;3.30;;
63218;SDS011;49320;52.512;13.448;2023-02-28T16:09:32;4.13;;;3.00;;
63218;SDS011;49320;52.512;13.448;2023-02-28T16:12:00;5.57;;;3.33;;
63218;SDS011;49320;52.512;13.448;2023-02-28T16:14:29;4.60;;;3.17;;
63218;SDS011;49320;52.512;13.448;2023-02-28T16:17:11;4.38;;;2.85;;
63218;SDS011;49320;52.512;13.448;2023-02-28T16:19:47;4.85;;;2.88;;
63218;SDS011;49320;52.512;13.448;2023-02-28T16:22:14;8.02;;;3.30;;
63218;SDS011;49320;52.512;13.448;2023-02-28T16:24:41;3.92;;;2.85;;
63218;SDS011;49320;52.512;13.448;2023-02-28T16:30:02;4.15;;;2.85;;
63218;SDS011;49320;52.512;13.448;2023-02-28T16:32:31;3.50;;;2.45;;
63218;SDS011;49320;52.512;13.448;2023-02-28T16:35:02;4.40;;;3.03;;
63218;SDS011;49320;52.512;13.448;2023-02-28T16:37:29;3.92;;;2.67;;
63218;SDS011;49320;52.512;13.448;2023-02-28T16:39:56;3.88;;;2.70;;
63218;SDS011;49320;52.512;13.448;2023-02-28T16:42:25;5.80;;;3.08;;
63218;SDS011;49320;52.512;13.448;2023-02-28T16:44:54;5.60;;;4.10;;
63218;SDS011;49320;52.512;13.448;2023-02-28T16:47:21;5.78;;;3.50;;
63218;SDS011;49320;52.512;13.448;2023-02-28T16:49:48;4.50;;;3.47;;
63218;SDS011;49320;52.512;13.448;2023-02-28T16:52:15;4.65;;;3.20;;
63218;SDS011;49320;52.512;13.448;2023-02-28T16:54:42;3.97;;;3.10;;
63218;SDS011;49320;52.512;13.448;2023-02-28T16:57:27;4.05;;;3.03;;
63218;SDS011;49320;52.512;13.448;2023-02-28T16:59:53;5.10;;;3.40;;
63218;SDS011;49320;52.512;13.448;2023-02-28T17:02:20;4.35;;;3.85;;
63218;SDS011;49320;52.512;13.448;2023-02-28T17:04:47;4.88;;;3.30;;
63218;SDS011;49320;52.512;13.448;2023-02-28T17:07:15;5.85;;;4.28;;
63218;SDS011;49320;52.512;13.448;2023-02-28T17:09:43;5.82;;;4.13;;
63218;SDS011;49320;52.512;13.448;2023-02-28T17:12:12;4.80;;;3.47;;
63218;SDS011;49320;52.512;13.448;2023-02-28T17:14:38;6.50;;;3.22;;
63218;SDS011;49320;52.512;13.448;2023-02-28T17:17:06;5.22;;;3.78;;
63218;SDS011;49320;52.512;13.448;2023-02-28T17:19:33;5.60;;;3.67;;
63218;SDS011;49320;52.512;13.448;2023-02-28T17:22:02;5.00;;;3.50;;
63218;SDS011;49320;52.512;13.448;2023-02-28T17:24:29;5.50;;;3.47;;
63218;SDS011;49320;52.512;13.448;2023-02-28T17:26:56;4.68;;;3.67;;